Airfield :
LOGIN :

Register | Disclaimer

   EN    FR    IT 

 










Legend :    VFR   Marginal VFR   IFR   Intensive IFR   Very Intensive IFR
Visi :
Ceiling :
>= 8 km
>= 3000ft
5 to 8 km
1000 to 3000 ft
1500m to 5 km
500 to 1000 ft
800 to 1500m
200 to 500 ft
< 800m
< 200 ft
Symbols :   Thunderstorms  Fog  Heavy snow  Heavy precipitations  Wind > 20 kt
SIGMETs :     Misc.  Thunderstorms  Icing  Turbulence  Mountain Waves  Volcanic Ashes






- Airport Elevation : 183 ft
- IATA code : HAJ


EDDV - Hanover/Langenhagen Int.

CURRENT METAR :
  • 050120Z 35002KT 9000 2000NW BCFG NSC 13/13 Q1012

EXPIRED METARs :
  • 050050Z 00000KT 9000 1500NW R09L/0600VP2000U R09R/0600V1200N BCFG NSC 13/13 Q1012
  • 050020Z 21001KT CAVOK 14/13 Q1012
  • 042350Z VRB02KT CAVOK 15/14 Q1012
  • 042320Z 10002KT CAVOK 15/14 Q1012
  • 042250Z 08003KT CAVOK 15/14 Q1012

TAF TAF EDDV
Valid from the 05 at 00:00 until the 06 at 00:00 UTC


042300Z 0500/0524 VRB03KT 9999 FEW040
PROB30
TEMPO 0502/0505 1200 BCFG
BECMG 0506/0508 11008KT
TEMPO 0510/0517 SHRA SCT035TCU
PROB30
TEMPO 0513/0516 14015G35KT 4500 TSRA BKN020CB
BECMG 0519/0521 10003KT
TEMPO 0521/0524 2000 BR BKN004



MET'MAP, your aeronautical weather chart ! - Copyright ORBIFLY December 2007 - Disclaimer

ORBIFLY MET'MAP TEAM :

Programming & Development : Alexandra Zaïnal
Concept & original design : Baudouin d'Aumeries
Assistance for programming : Marc-Olivier Méhu
Technical & hardware support : Manuel Goepfert

Contact : metmap@orbifly.com




SOURCES & CREDITS :

   NOAA